sensor_id;sensor_type;location;lat;lon;timestamp;temperature;humidity
38938;DHT22;24727;51.974;20.868;2022-11-14T00:00:40;8.80;1.00
38938;DHT22;24727;51.974;20.868;2022-11-14T00:03:08;8.90;1.00
38938;DHT22;24727;51.974;20.868;2022-11-14T00:05:41;9.00;1.00
38938;DHT22;24727;51.974;20.868;2022-11-14T00:08:24;9.00;1.00
38938;DHT22;24727;51.974;20.868;2022-11-14T00:11:02;9.00;1.00
38938;DHT22;24727;51.974;20.868;2022-11-14T00:13:28;8.90;1.00
38938;DHT22;24727;51.974;20.868;2022-11-14T00:15:54;8.90;1.00
38938;DHT22;24727;51.974;20.868;2022-11-14T00:18:22;8.80;1.00
38938;DHT22;24727;51.974;20.868;2022-11-14T00:20:49;8.60;1.00
38938;DHT22;24727;51.974;20.868;2022-11-14T00:23:18;8.70;1.00
38938;DHT22;24727;51.974;20.868;2022-11-14T00:25:45;8.70;1.00
38938;DHT22;24727;51.974;20.868;2022-11-14T00:28:11;8.70;1.00
38938;DHT22;24727;51.974;20.868;2022-11-14T00:30:37;8.80;1.00
38938;DHT22;24727;51.974;20.868;2022-11-14T00:33:03;8.90;1.00
38938;DHT22;24727;51.974;20.868;2022-11-14T00:35:35;8.80;1.00
38938;DHT22;24727;51.974;20.868;2022-11-14T00:38:01;8.80;1.00
38938;DHT22;24727;51.974;20.868;2022-11-14T00:40:27;8.70;1.00
38938;DHT22;24727;51.974;20.868;2022-11-14T00:42:55;8.60;1.00
38938;DHT22;24727;51.974;20.868;2022-11-14T00:45:22;8.70;1.00
38938;DHT22;24727;51.974;20.868;2022-11-14T00:47:49;8.70;1.00
38938;DHT22;24727;51.974;20.868;2022-11-14T00:50:16;8.70;1.00
38938;DHT22;24727;51.974;20.868;2022-11-14T00:52:43;8.70;1.00
38938;DHT22;24727;51.974;20.868;2022-11-14T00:55:09;8.70;1.00
38938;DHT22;24727;51.974;20.868;2022-11-14T00:57:36;8.70;1.00
38938;DHT22;24727;51.974;20.868;2022-11-14T01:00:04;8.70;1.00
38938;DHT22;24727;51.974;20.868;2022-11-14T01:02:30;8.70;1.00
38938;DHT22;24727;51.974;20.868;2022-11-14T01:04:58;8.70;1.00
38938;DHT22;24727;51.974;20.868;2022-11-14T01:07:31;8.50;1.00
38938;DHT22;24727;51.974;20.868;2022-11-14T01:09:57;8.30;1.00
38938;DHT22;24727;51.974;20.868;2022-11-14T01:12:22;8.40;1.00
38938;DHT22;24727;51.974;20.868;2022-11-14T01:14:50;8.30;1.00
38938;DHT22;24727;51.974;20.868;2022-11-14T01:17:16;8.30;1.00
38938;DHT22;24727;51.974;20.868;2022-11-14T01:19:43;8.40;1.00
38938;DHT22;24727;51.974;20.868;2022-11-14T01:22:09;8.40;1.00
38938;DHT22;24727;51.974;20.868;2022-11-14T01:24:36;8.40;1.00
38938;DHT22;24727;51.974;20.868;2022-11-14T01:27:03;8.40;1.00
38938;DHT22;24727;51.974;20.868;2022-11-14T01:29:30;8.40;1.00
38938;DHT22;24727;51.974;20.868;2022-11-14T01:32:06;8.40;1.00
38938;DHT22;24727;51.974;20.868;2022-11-14T01:34:32;8.50;2.60
38938;DHT22;24727;51.974;20.868;2022-11-14T01:37:01;8.50;1.00
38938;DHT22;24727;51.974;20.868;2022-11-14T01:39:28;8.60;1.00
38938;DHT22;24727;51.974;20.868;2022-11-14T01:41:55;8.60;1.00
38938;DHT22;24727;51.974;20.868;2022-11-14T01:44:52;8.60;1.00
38938;DHT22;24727;51.974;20.868;2022-11-14T01:47:26;8.60;1.00
38938;DHT22;24727;51.974;20.868;2022-11-14T01:49:57;8.70;1.00
38938;DHT22;24727;51.974;20.868;2022-11-14T01:52:35;8.70;1.00
38938;DHT22;24727;51.974;20.868;2022-11-14T01:55:07;8.60;1.00
38938;DHT22;24727;51.974;20.868;2022-11-14T01:57:39;8.30;1.00
38938;DHT22;24727;51.974;20.868;2022-11-14T02:00:09;8.40;1.00
38938;DHT22;24727;51.974;20.868;2022-11-14T02:02:36;8.50;1.00
38938;DHT22;24727;51.974;20.868;2022-11-14T02:05:10;8.50;1.00
38938;DHT22;24727;51.974;20.868;2022-11-14T02:07:39;8.20;1.00
38938;DHT22;24727;51.974;20.868;2022-11-14T02:10:13;8.20;1.00
38938;DHT22;24727;51.974;20.868;2022-11-14T02:12:40;8.20;1.00
38938;DHT22;24727;51.974;20.868;2022-11-14T02:15:07;8.20;5.50
38938;DHT22;24727;51.974;20.868;2022-11-14T02:17:34;8.40;13.10
38938;DHT22;24727;51.974;20.868;2022-11-14T02:22:37;8.40;4.80
38938;DHT22;24727;51.974;20.868;2022-11-14T02:25:05;8.30;1.00
38938;DHT22;24727;51.974;20.868;2022-11-14T02:27:32;8.30;1.00
38938;DHT22;24727;51.974;20.868;2022-11-14T02:30:08;8.40;1.00
38938;DHT22;24727;51.974;20.868;2022-11-14T02:32:35;8.40;1.00
38938;DHT22;24727;51.974;20.868;2022-11-14T02:35:02;8.30;1.00
38938;DHT22;24727;51.974;20.868;2022-11-14T02:37:30;8.30;1.00
38938;DHT22;24727;51.974;20.868;2022-11-14T02:39:56;8.30;1.00
38938;DHT22;24727;51.974;20.868;2022-11-14T02:42:22;8.20;1.00
38938;DHT22;24727;51.974;20.868;2022-11-14T02:44:47;8.10;1.00
38938;DHT22;24727;51.974;20.868;2022-11-14T02:47:14;8.10;4.20
38938;DHT22;24727;51.974;20.868;2022-11-14T02:49:40;8.20;4.20
38938;DHT22;24727;51.974;20.868;2022-11-14T02:52:07;8.20;6.10
38938;DHT22;24727;51.974;20.868;2022-11-14T02:54:40;8.10;1.00
38938;DHT22;24727;51.974;20.868;2022-11-14T02:57:07;8.00;1.00
38938;DHT22;24727;51.974;20.868;2022-11-14T02:59:34;8.00;6.10
38938;DHT22;24727;51.974;20.868;2022-11-14T03:02:00;7.90;6.10
38938;DHT22;24727;51.974;20.868;2022-11-14T03:04:27;8.00;11.40
38938;DHT22;24727;51.974;20.868;2022-11-14T03:06:53;7.90;5.10
38938;DHT22;24727;51.974;20.868;2022-11-14T03:09:19;7.80;17.80
38938;DHT22;24727;51.974;20.868;2022-11-14T03:11:46;7.70;26.40
38938;DHT22;24727;51.974;20.868;2022-11-14T03:14:12;7.80;42.40
38938;DHT22;24727;51.974;20.868;2022-11-14T03:16:39;7.70;45.40
38938;DHT22;24727;51.974;20.868;2022-11-14T03:19:07;7.80;50.00
38938;DHT22;24727;51.974;20.868;2022-11-14T03:21:33;7.90;53.30
38938;DHT22;24727;51.974;20.868;2022-11-14T03:23:59;7.80;44.80
38938;DHT22;24727;51.974;20.868;2022-11-14T03:26:25;7.90;49.80
38938;DHT22;24727;51.974;20.868;2022-11-14T03:28:52;7.90;50.60
38938;DHT22;24727;51.974;20.868;2022-11-14T03:31:19;7.90;48.70
38938;DHT22;24727;51.974;20.868;2022-11-14T03:33:45;7.90;46.50
38938;DHT22;24727;51.974;20.868;2022-11-14T03:36:15;8.00;50.40
38938;DHT22;24727;51.974;20.868;2022-11-14T03:38:47;8.00;39.10
38938;DHT22;24727;51.974;20.868;2022-11-14T03:41:13;8.00;34.10
38938;DHT22;24727;51.974;20.868;2022-11-14T03:43:41;8.10;29.60
38938;DHT22;24727;51.974;20.868;2022-11-14T03:46:07;8.00;26.10
38938;DHT22;24727;51.974;20.868;2022-11-14T03:48:39;8.10;25.10
38938;DHT22;24727;51.974;20.868;2022-11-14T03:51:05;8.20;25.80
38938;DHT22;24727;51.974;20.868;2022-11-14T03:53:32;8.00;10.20
38938;DHT22;24727;51.974;20.868;2022-11-14T03:55:58;7.90;15.30
38938;DHT22;24727;51.974;20.868;2022-11-14T03:58:24;7.90;15.50
38938;DHT22;24727;51.974;20.868;2022-11-14T04:00:50;8.00;24.70
38938;DHT22;24727;51.974;20.868;2022-11-14T04:03:17;8.10;26.00
38938;DHT22;24727;51.974;20.868;2022-11-14T04:05:50;8.20;20.50
38938;DHT22;24727;51.974;20.868;2022-11-14T04:08:17;8.20;16.70
38938;DHT22;24727;51.974;20.868;2022-11-14T04:10:46;8.30;12.30
38938;DHT22;24727;51.974;20.868;2022-11-14T04:13:13;8.20;3.30
38938;DHT22;24727;51.974;20.868;2022-11-14T04:15:39;8.20;7.10
38938;DHT22;24727;51.974;20.868;2022-11-14T04:18:12;8.20;5.00
38938;DHT22;24727;51.974;20.868;2022-11-14T04:20:39;8.20;2.00
38938;DHT22;24727;51.974;20.868;2022-11-14T04:23:06;8.30;1.00
38938;DHT22;24727;51.974;20.868;2022-11-14T04:25:32;8.30;1.00
38938;DHT22;24727;51.974;20.868;2022-11-14T04:28:01;8.30;1.00
38938;DHT22;24727;51.974;20.868;2022-11-14T04:30:27;8.30;1.00
38938;DHT22;24727;51.974;20.868;2022-11-14T04:32:53;8.30;1.00
38938;DHT22;24727;51.974;20.868;2022-11-14T04:35:19;8.20;1.00
38938;DHT22;24727;51.974;20.868;2022-11-14T04:37:58;8.20;1.00
38938;DHT22;24727;51.974;20.868;2022-11-14T04:40:24;8.20;1.00
38938;DHT22;24727;51.974;20.868;2022-11-14T04:42:49;8.20;1.00
38938;DHT22;24727;51.974;20.868;2022-11-14T04:45:16;8.20;1.00
38938;DHT22;24727;51.974;20.868;2022-11-14T04:47:43;8.20;1.00
38938;DHT22;24727;51.974;20.868;2022-11-14T04:50:09;8.30;1.00
38938;DHT22;24727;51.974;20.868;2022-11-14T04:52:36;8.30;1.00
38938;DHT22;24727;51.974;20.868;2022-11-14T04:55:03;8.30;1.00
38938;DHT22;24727;51.974;20.868;2022-11-14T04:57:30;8.20;1.00
38938;DHT22;24727;51.974;20.868;2022-11-14T04:59:55;8.10;1.00
38938;DHT22;24727;51.974;20.868;2022-11-14T05:02:21;8.00;1.00
38938;DHT22;24727;51.974;20.868;2022-11-14T05:04:47;8.10;1.00
38938;DHT22;24727;51.974;20.868;2022-11-14T05:07:14;8.00;1.00
38938;DHT22;24727;51.974;20.868;2022-11-14T05:09:42;8.00;1.00
38938;DHT22;24727;51.974;20.868;2022-11-14T05:12:08;8.10;1.70
38938;DHT22;24727;51.974;20.868;2022-11-14T05:14:34;8.00;1.00
38938;DHT22;24727;51.974;20.868;2022-11-14T05:17:01;8.00;1.00
38938;DHT22;24727;51.974;20.868;2022-11-14T05:19:28;8.00;1.00
38938;DHT22;24727;51.974;20.868;2022-11-14T05:21:54;7.90;1.00
38938;DHT22;24727;51.974;20.868;2022-11-14T05:24:20;7.80;1.00
38938;DHT22;24727;51.974;20.868;2022-11-14T05:26:47;7.90;5.50
38938;DHT22;24727;51.974;20.868;2022-11-14T05:29:13;7.90;11.40
38938;DHT22;24727;51.974;20.868;2022-11-14T05:31:39;8.00;4.20
38938;DHT22;24727;51.974;20.868;2022-11-14T05:34:05;8.00;7.60
38938;DHT22;24727;51.974;20.868;2022-11-14T05:36:32;8.00;2.10
38938;DHT22;24727;51.974;20.868;2022-11-14T05:38:58;8.10;1.90
38938;DHT22;24727;51.974;20.868;2022-11-14T05:41:28;8.20;1.00
38938;DHT22;24727;51.974;20.868;2022-11-14T05:43:55;8.10;1.00
38938;DHT22;24727;51.974;20.868;2022-11-14T05:46:21;8.00;1.00
38938;DHT22;24727;51.974;20.868;2022-11-14T05:48:47;8.00;1.00
38938;DHT22;24727;51.974;20.868;2022-11-14T05:51:13;7.80;1.00
38938;DHT22;24727;51.974;20.868;2022-11-14T05:53:41;7.60;4.50
38938;DHT22;24727;51.974;20.868;2022-11-14T05:56:10;7.40;17.20
38938;DHT22;24727;51.974;20.868;2022-11-14T05:58:37;7.40;38.80
38938;DHT22;24727;51.974;20.868;2022-11-14T06:01:14;7.40;46.20
38938;DHT22;24727;51.974;20.868;2022-11-14T06:03:43;7.50;56.20
38938;DHT22;24727;51.974;20.868;2022-11-14T06:06:12;7.60;59.30
38938;DHT22;24727;51.974;20.868;2022-11-14T06:08:39;7.60;52.10
38938;DHT22;24727;51.974;20.868;2022-11-14T06:11:16;7.50;51.70
38938;DHT22;24727;51.974;20.868;2022-11-14T06:13:42;7.60;55.60
38938;DHT22;24727;51.974;20.868;2022-11-14T06:16:14;7.50;50.00
38938;DHT22;24727;51.974;20.868;2022-11-14T06:18:42;7.60;50.60
38938;DHT22;24727;51.974;20.868;2022-11-14T06:23:38;7.50;45.10
38938;DHT22;24727;51.974;20.868;2022-11-14T06:26:13;7.50;52.00
38938;DHT22;24727;51.974;20.868;2022-11-14T06:28:39;7.60;48.40
38938;DHT22;24727;51.974;20.868;2022-11-14T06:31:07;7.50;49.00
38938;DHT22;24727;51.974;20.868;2022-11-14T06:33:36;7.50;49.70
38938;DHT22;24727;51.974;20.868;2022-11-14T06:36:05;7.50;46.30
38938;DHT22;24727;51.974;20.868;2022-11-14T06:38:35;7.50;45.30
38938;DHT22;24727;51.974;20.868;2022-11-14T06:41:09;7.40;48.40
38938;DHT22;24727;51.974;20.868;2022-11-14T06:43:37;7.30;55.00
38938;DHT22;24727;51.974;20.868;2022-11-14T06:46:04;7.30;63.30
38938;DHT22;24727;51.974;20.868;2022-11-14T06:51:30;7.30;56.80
38938;DHT22;24727;51.974;20.868;2022-11-14T06:53:57;7.30;57.50
38938;DHT22;24727;51.974;20.868;2022-11-14T06:56:29;7.30;62.10
38938;DHT22;24727;51.974;20.868;2022-11-14T06:58:56;7.20;58.60
38938;DHT22;24727;51.974;20.868;2022-11-14T07:01:24;7.30;67.20
38938;DHT22;24727;51.974;20.868;2022-11-14T07:03:54;7.10;60.10
38938;DHT22;24727;51.974;20.868;2022-11-14T07:06:26;7.10;65.30
38938;DHT22;24727;51.974;20.868;2022-11-14T07:08:53;7.20;69.80
38938;DHT22;24727;51.974;20.868;2022-11-14T07:11:22;7.40;75.10
38938;DHT22;24727;51.974;20.868;2022-11-14T07:13:49;7.30;66.40
38938;DHT22;24727;51.974;20.868;2022-11-14T07:16:16;7.30;60.30
38938;DHT22;24727;51.974;20.868;2022-11-14T07:18:42;7.20;56.00
38938;DHT22;24727;51.974;20.868;2022-11-14T07:21:09;7.20;63.00
38938;DHT22;24727;51.974;20.868;2022-11-14T07:23:52;7.30;68.60
38938;DHT22;24727;51.974;20.868;2022-11-14T07:36:51;7.40;55.10
38938;DHT22;24727;51.974;20.868;2022-11-14T07:39:23;7.40;53.90
38938;DHT22;24727;51.974;20.868;2022-11-14T07:42:17;7.40;55.90
38938;DHT22;24727;51.974;20.868;2022-11-14T07:45:03;7.40;56.80
38938;DHT22;24727;51.974;20.868;2022-11-14T07:47:30;7.60;55.50
38938;DHT22;24727;51.974;20.868;2022-11-14T07:49:57;7.50;50.30
38938;DHT22;24727;51.974;20.868;2022-11-14T07:52:22;7.60;44.80
38938;DHT22;24727;51.974;20.868;2022-11-14T07:54:48;7.60;39.50
38938;DHT22;24727;51.974;20.868;2022-11-14T07:57:14;7.60;37.20
38938;DHT22;24727;51.974;20.868;2022-11-14T07:59:40;7.60;24.10
38938;DHT22;24727;51.974;20.868;2022-11-14T08:02:11;7.30;1.60
38938;DHT22;24727;51.974;20.868;2022-11-14T08:04:40;7.40;12.70
38938;DHT22;24727;51.974;20.868;2022-11-14T08:07:07;7.40;18.20
38938;DHT22;24727;51.974;20.868;2022-11-14T08:09:33;7.30;13.30
38938;DHT22;24727;51.974;20.868;2022-11-14T08:11:59;7.30;18.40
38938;DHT22;24727;51.974;20.868;2022-11-14T08:14:25;7.50;31.00
38938;DHT22;24727;51.974;20.868;2022-11-14T08:16:51;7.50;33.30
38938;DHT22;24727;51.974;20.868;2022-11-14T08:19:17;7.60;33.20
38938;DHT22;24727;51.974;20.868;2022-11-14T08:21:43;7.60;34.60
38938;DHT22;24727;51.974;20.868;2022-11-14T08:24:10;7.60;10.60
38938;DHT22;24727;51.974;20.868;2022-11-14T08:26:36;7.50;1.00
38938;DHT22;24727;51.974;20.868;2022-11-14T08:29:08;7.50;1.00
38938;DHT22;24727;51.974;20.868;2022-11-14T08:31:34;7.40;1.00
38938;DHT22;24727;51.974;20.868;2022-11-14T08:34:00;7.40;6.50
38938;DHT22;24727;51.974;20.868;2022-11-14T08:36:26;7.50;7.30
38938;DHT22;24727;51.974;20.868;2022-11-14T08:38:52;7.50;3.90
38938;DHT22;24727;51.974;20.868;2022-11-14T08:41:18;7.50;6.20
38938;DHT22;24727;51.974;20.868;2022-11-14T08:43:44;7.60;16.80
38938;DHT22;24727;51.974;20.868;2022-11-14T08:46:12;7.60;1.70
38938;DHT22;24727;51.974;20.868;2022-11-14T08:48:38;7.60;1.00
38938;DHT22;24727;51.974;20.868;2022-11-14T08:51:05;7.60;1.00
38938;DHT22;24727;51.974;20.868;2022-11-14T08:53:33;7.60;1.00
38938;DHT22;24727;51.974;20.868;2022-11-14T08:56:01;7.40;1.00
38938;DHT22;24727;51.974;20.868;2022-11-14T08:58:30;7.60;1.00
38938;DHT22;24727;51.974;20.868;2022-11-14T09:01:03;7.70;1.00
38938;DHT22;24727;51.974;20.868;2022-11-14T09:03:29;7.80;1.00
38938;DHT22;24727;51.974;20.868;2022-11-14T09:05:57;7.90;1.00
38938;DHT22;24727;51.974;20.868;2022-11-14T09:08:23;7.80;1.00
38938;DHT22;24727;51.974;20.868;2022-11-14T09:10:50;7.80;1.00
38938;DHT22;24727;51.974;20.868;2022-11-14T09:13:17;7.90;1.00
38938;DHT22;24727;51.974;20.868;2022-11-14T09:15:43;7.70;1.00
38938;DHT22;24727;51.974;20.868;2022-11-14T09:18:10;7.60;1.00
38938;DHT22;24727;51.974;20.868;2022-11-14T09:20:36;7.70;1.00
38938;DHT22;24727;51.974;20.868;2022-11-14T09:23:04;7.50;1.00
38938;DHT22;24727;51.974;20.868;2022-11-14T09:25:30;7.30;1.00
38938;DHT22;24727;51.974;20.868;2022-11-14T09:27:56;7.40;1.00
38938;DHT22;24727;51.974;20.868;2022-11-14T09:30:23;7.40;1.00
38938;DHT22;24727;51.974;20.868;2022-11-14T09:32:50;7.30;1.00
38938;DHT22;24727;51.974;20.868;2022-11-14T09:35:17;7.50;1.00
38938;DHT22;24727;51.974;20.868;2022-11-14T09:37:44;7.70;1.00
38938;DHT22;24727;51.974;20.868;2022-11-14T09:40:12;7.50;1.00
38938;DHT22;24727;51.974;20.868;2022-11-14T09:43:08;7.40;1.00
38938;DHT22;24727;51.974;20.868;2022-11-14T09:45:42;7.40;1.00
38938;DHT22;24727;51.974;20.868;2022-11-14T09:48:17;7.30;1.00
38938;DHT22;24727;51.974;20.868;2022-11-14T09:51:14;7.30;1.00
38938;DHT22;24727;51.974;20.868;2022-11-14T09:56:43;7.40;1.00
38938;DHT22;24727;51.974;20.868;2022-11-14T09:59:13;7.40;1.00
38938;DHT22;24727;51.974;20.868;2022-11-14T10:07:33;7.50;1.00
38938;DHT22;24727;51.974;20.868;2022-11-14T10:10:31;7.40;1.00
38938;DHT22;24727;51.974;20.868;2022-11-14T10:20:57;7.20;1.00
38938;DHT22;24727;51.974;20.868;2022-11-14T10:26:26;7.20;1.00
38938;DHT22;24727;51.974;20.868;2022-11-14T10:31:48;7.40;1.00
38938;DHT22;24727;51.974;20.868;2022-11-14T10:34:35;7.50;1.00
38938;DHT22;24727;51.974;20.868;2022-11-14T10:40:00;7.10;1.00
38938;DHT22;24727;51.974;20.868;2022-11-14T10:42:39;7.20;1.00
38938;DHT22;24727;51.974;20.868;2022-11-14T10:46:12;7.50;21.90
38938;DHT22;24727;51.974;20.868;2022-11-14T10:48:19;7.70;35.60
38938;DHT22;24727;51.974;20.868;2022-11-14T10:50:59;7.80;26.90
38938;DHT22;24727;51.974;20.868;2022-11-14T10:56:16;7.70;1.00
38938;DHT22;24727;51.974;20.868;2022-11-14T10:58:43;7.80;1.00
38938;DHT22;24727;51.974;20.868;2022-11-14T11:03:57;8.00;1.00
38938;DHT22;24727;51.974;20.868;2022-11-14T11:06:25;8.00;1.00
38938;DHT22;24727;51.974;20.868;2022-11-14T11:08:57;7.90;1.00
38938;DHT22;24727;51.974;20.868;2022-11-14T11:11:53;7.70;1.00
38938;DHT22;24727;51.974;20.868;2022-11-14T11:14:20;7.70;1.00
38938;DHT22;24727;51.974;20.868;2022-11-14T11:16:46;7.70;1.00
38938;DHT22;24727;51.974;20.868;2022-11-14T11:19:24;7.60;1.00
38938;DHT22;24727;51.974;20.868;2022-11-14T11:21:51;7.70;1.00
38938;DHT22;24727;51.974;20.868;2022-11-14T11:24:35;7.60;1.00
38938;DHT22;24727;51.974;20.868;2022-11-14T11:27:24;7.60;1.00
38938;DHT22;24727;51.974;20.868;2022-11-14T11:30:07;7.30;1.00
38938;DHT22;24727;51.974;20.868;2022-11-14T11:32:34;7.20;1.00
38938;DHT22;24727;51.974;20.868;2022-11-14T11:35:05;7.20;1.00
38938;DHT22;24727;51.974;20.868;2022-11-14T11:37:43;7.30;1.00
38938;DHT22;24727;51.974;20.868;2022-11-14T11:40:16;7.60;16.50
38938;DHT22;24727;51.974;20.868;2022-11-14T11:45:21;7.40;1.00
38938;DHT22;24727;51.974;20.868;2022-11-14T11:50:33;7.40;1.00
38938;DHT22;24727;51.974;20.868;2022-11-14T11:55:49;7.50;1.00
38938;DHT22;24727;51.974;20.868;2022-11-14T12:00:53;7.40;1.00
38938;DHT22;24727;51.974;20.868;2022-11-14T12:03:24;7.40;1.00
38938;DHT22;24727;51.974;20.868;2022-11-14T12:06:14;7.50;1.00
38938;DHT22;24727;51.974;20.868;2022-11-14T12:08:54;7.40;1.00
38938;DHT22;24727;51.974;20.868;2022-11-14T12:11:26;7.40;1.00
38938;DHT22;24727;51.974;20.868;2022-11-14T12:17:24;7.60;1.00
38938;DHT22;24727;51.974;20.868;2022-11-14T12:20:17;7.60;1.00
38938;DHT22;24727;51.974;20.868;2022-11-14T12:31:13;7.90;1.00
38938;DHT22;24727;51.974;20.868;2022-11-14T12:33:53;7.90;1.00
38938;DHT22;24727;51.974;20.868;2022-11-14T12:36:30;7.80;1.00
38938;DHT22;24727;51.974;20.868;2022-11-14T12:38:58;7.90;1.00
38938;DHT22;24727;51.974;20.868;2022-11-14T12:41:29;8.00;1.00
38938;DHT22;24727;51.974;20.868;2022-11-14T12:44:36;7.80;1.00
38938;DHT22;24727;51.974;20.868;2022-11-14T12:52:02;8.10;1.00
38938;DHT22;24727;51.974;20.868;2022-11-14T12:54:45;8.10;1.00
38938;DHT22;24727;51.974;20.868;2022-11-14T12:57:21;8.10;1.00
38938;DHT22;24727;51.974;20.868;2022-11-14T13:00:10;8.10;1.00
38938;DHT22;24727;51.974;20.868;2022-11-14T13:10:46;8.00;1.00
38938;DHT22;24727;51.974;20.868;2022-11-14T13:13:14;8.00;1.00
38938;DHT22;24727;51.974;20.868;2022-11-14T13:16:01;8.20;1.00
38938;DHT22;24727;51.974;20.868;2022-11-14T13:19:11;8.30;1.00
38938;DHT22;24727;51.974;20.868;2022-11-14T13:27:26;8.00;1.00
38938;DHT22;24727;51.974;20.868;2022-11-14T13:29:52;8.00;1.00
38938;DHT22;24727;51.974;20.868;2022-11-14T13:41:30;7.80;1.00
38938;DHT22;24727;51.974;20.868;2022-11-14T13:50:15;8.00;1.00
38938;DHT22;24727;51.974;20.868;2022-11-14T13:52:46;7.70;1.00
38938;DHT22;24727;51.974;20.868;2022-11-14T14:04:39;8.10;1.00
38938;DHT22;24727;51.974;20.868;2022-11-14T14:15:26;8.00;1.00
38938;DHT22;24727;51.974;20.868;2022-11-14T14:20:37;7.80;1.00
38938;DHT22;24727;51.974;20.868;2022-11-14T14:32:17;7.90;1.00
38938;DHT22;24727;51.974;20.868;2022-11-14T14:34:45;7.80;1.00
38938;DHT22;24727;51.974;20.868;2022-11-14T14:37:25;7.70;1.00
38938;DHT22;24727;51.974;20.868;2022-11-14T14:40:00;7.90;1.00
38938;DHT22;24727;51.974;20.868;2022-11-14T14:42:33;8.00;1.00
38938;DHT22;24727;51.974;20.868;2022-11-14T14:45:02;7.80;1.00
38938;DHT22;24727;51.974;20.868;2022-11-14T14:47:41;7.90;1.00
38938;DHT22;24727;51.974;20.868;2022-11-14T14:50:22;7.90;1.00
38938;DHT22;24727;51.974;20.868;2022-11-14T14:53:02;7.90;1.00
38938;DHT22;24727;51.974;20.868;2022-11-14T14:55:33;8.00;1.00
38938;DHT22;24727;51.974;20.868;2022-11-14T14:58:31;8.00;1.00
38938;DHT22;24727;51.974;20.868;2022-11-14T15:01:02;8.00;1.00
38938;DHT22;24727;51.974;20.868;2022-11-14T15:03:38;7.80;1.00
38938;DHT22;24727;51.974;20.868;2022-11-14T15:06:20;7.70;1.00
38938;DHT22;24727;51.974;20.868;2022-11-14T15:08:56;7.90;1.00
38938;DHT22;24727;51.974;20.868;2022-11-14T15:11:23;7.80;1.00
38938;DHT22;24727;51.974;20.868;2022-11-14T15:13:56;7.70;1.00
38938;DHT22;24727;51.974;20.868;2022-11-14T15:16:24;7.70;1.00
38938;DHT22;24727;51.974;20.868;2022-11-14T15:18:52;7.60;1.00
38938;DHT22;24727;51.974;20.868;2022-11-14T15:21:25;7.60;1.00
38938;DHT22;24727;51.974;20.868;2022-11-14T15:24:19;7.60;1.00
38938;DHT22;24727;51.974;20.868;2022-11-14T15:26:47;7.70;1.00
38938;DHT22;24727;51.974;20.868;2022-11-14T15:29:19;7.80;1.00
38938;DHT22;24727;51.974;20.868;2022-11-14T15:31:52;7.80;1.00
38938;DHT22;24727;51.974;20.868;2022-11-14T15:34:32;7.80;1.00
38938;DHT22;24727;51.974;20.868;2022-11-14T15:39:39;7.80;1.00
38938;DHT22;24727;51.974;20.868;2022-11-14T15:44:54;7.80;1.00
38938;DHT22;24727;51.974;20.868;2022-11-14T15:47:35;7.70;1.00
38938;DHT22;24727;51.974;20.868;2022-11-14T15:52:49;7.70;1.00
38938;DHT22;24727;51.974;20.868;2022-11-14T15:55:21;7.70;1.00
38938;DHT22;24727;51.974;20.868;2022-11-14T15:57:48;7.60;1.00
38938;DHT22;24727;51.974;20.868;2022-11-14T16:00:20;7.60;1.00
38938;DHT22;24727;51.974;20.868;2022-11-14T16:02:50;7.60;1.00
38938;DHT22;24727;51.974;20.868;2022-11-14T16:05:23;7.60;1.00
38938;DHT22;24727;51.974;20.868;2022-11-14T16:07:52;7.50;1.00
38938;DHT22;24727;51.974;20.868;2022-11-14T16:10:23;7.50;1.00
38938;DHT22;24727;51.974;20.868;2022-11-14T16:12:50;7.60;1.00
38938;DHT22;24727;51.974;20.868;2022-11-14T16:15:17;7.40;1.00
38938;DHT22;24727;51.974;20.868;2022-11-14T16:17:45;7.40;1.00
38938;DHT22;24727;51.974;20.868;2022-11-14T16:20:27;7.30;1.00
38938;DHT22;24727;51.974;20.868;2022-11-14T16:22:53;7.30;1.00
38938;DHT22;24727;51.974;20.868;2022-11-14T16:25:27;7.30;1.00
38938;DHT22;24727;51.974;20.868;2022-11-14T16:27:54;7.30;1.00
38938;DHT22;24727;51.974;20.868;2022-11-14T16:30:22;7.20;1.00
38938;DHT22;24727;51.974;20.868;2022-11-14T16:32:49;7.10;1.00
38938;DHT22;24727;51.974;20.868;2022-11-14T16:35:19;7.00;1.00
38938;DHT22;24727;51.974;20.868;2022-11-14T16:37:46;7.00;1.00
38938;DHT22;24727;51.974;20.868;2022-11-14T16:40:24;7.10;1.00
38938;DHT22;24727;51.974;20.868;2022-11-14T16:42:57;7.10;1.00
38938;DHT22;24727;51.974;20.868;2022-11-14T16:45:30;7.00;1.00
38938;DHT22;24727;51.974;20.868;2022-11-14T16:47:58;7.10;1.00
38938;DHT22;24727;51.974;20.868;2022-11-14T16:50:25;7.20;1.00
38938;DHT22;24727;51.974;20.868;2022-11-14T16:52:51;7.10;1.00
38938;DHT22;24727;51.974;20.868;2022-11-14T16:55:19;7.20;1.00
38938;DHT22;24727;51.974;20.868;2022-11-14T16:57:47;7.10;1.00
38938;DHT22;24727;51.974;20.868;2022-11-14T17:00:14;7.10;1.00
38938;DHT22;24727;51.974;20.868;2022-11-14T17:02:40;7.20;1.00
38938;DHT22;24727;51.974;20.868;2022-11-14T17:05:08;7.00;1.00
38938;DHT22;24727;51.974;20.868;2022-11-14T17:07:37;6.90;1.00
38938;DHT22;24727;51.974;20.868;2022-11-14T17:10:05;6.80;1.00
38938;DHT22;24727;51.974;20.868;2022-11-14T17:12:33;6.70;1.00
38938;DHT22;24727;51.974;20.868;2022-11-14T17:15:00;6.80;1.00
38938;DHT22;24727;51.974;20.868;2022-11-14T17:17:26;6.80;1.00
38938;DHT22;24727;51.974;20.868;2022-11-14T17:19:52;6.70;1.00
38938;DHT22;24727;51.974;20.868;2022-11-14T17:22:18;6.70;1.00
38938;DHT22;24727;51.974;20.868;2022-11-14T17:24:44;6.70;1.00
38938;DHT22;24727;51.974;20.868;2022-11-14T17:27:12;6.70;1.00
38938;DHT22;24727;51.974;20.868;2022-11-14T17:29:39;6.80;1.00
38938;DHT22;24727;51.974;20.868;2022-11-14T17:32:07;6.90;1.00
38938;DHT22;24727;51.974;20.868;2022-11-14T17:34:34;6.80;1.00
38938;DHT22;24727;51.974;20.868;2022-11-14T17:37:00;6.80;1.00
38938;DHT22;24727;51.974;20.868;2022-11-14T17:39:27;6.80;1.00
38938;DHT22;24727;51.974;20.868;2022-11-14T17:41:53;6.70;1.00
38938;DHT22;24727;51.974;20.868;2022-11-14T17:44:20;6.70;1.00
38938;DHT22;24727;51.974;20.868;2022-11-14T17:46:52;6.70;1.00
38938;DHT22;24727;51.974;20.868;2022-11-14T17:49:18;6.70;1.00
38938;DHT22;24727;51.974;20.868;2022-11-14T17:51:44;6.60;1.00
38938;DHT22;24727;51.974;20.868;2022-11-14T17:54:12;6.70;1.00
38938;DHT22;24727;51.974;20.868;2022-11-14T17:56:39;6.70;1.00
38938;DHT22;24727;51.974;20.868;2022-11-14T17:59:12;6.70;1.00
38938;DHT22;24727;51.974;20.868;2022-11-14T18:01:39;6.80;1.00
38938;DHT22;24727;51.974;20.868;2022-11-14T18:04:05;6.60;1.00
38938;DHT22;24727;51.974;20.868;2022-11-14T18:06:32;6.50;1.00
38938;DHT22;24727;51.974;20.868;2022-11-14T18:08:59;6.50;1.00
38938;DHT22;24727;51.974;20.868;2022-11-14T18:11:30;6.40;1.00
38938;DHT22;24727;51.974;20.868;2022-11-14T18:13:56;6.50;1.00
38938;DHT22;24727;51.974;20.868;2022-11-14T18:16:24;6.60;1.00
38938;DHT22;24727;51.974;20.868;2022-11-14T18:18:51;6.40;1.00
38938;DHT22;24727;51.974;20.868;2022-11-14T18:21:22;6.50;1.00
38938;DHT22;24727;51.974;20.868;2022-11-14T18:23:52;6.50;1.00